LSGS METAR and TAF | Updated Today

LSGS METAR

Sion Airport

Observation time: 28 min. ago

LSGS 032250Z AUTO VRB01KT CAVOK 02/M06 Q1014

Need help? Read our tutorial on how to read METARs or read the parsed version below.

Sion Airport (LSGS) METAR

  • Weather conditions on Fri, 03 Dec 2021 22:50:00 +0000 (28 min. ago):
  • Present conditions: Dry
  • Clouds: Clear skies
  • Visibility: Greater than 10 km
  • Wind: Variable at 1 knots
  • Temperature: 2 celsius
  • Dew point: -6 celsius
  • Pressure: 1014 millibars
  • Remarks: None


Useful to know...

LSGS TAF

Sion Airport

TAF LSGS 031425Z 0315/0324 VRB02KT CAVOK BECMG 0315/0318 9999 BKN090
Observation time: 8:53 hr. ago
Need help? Read our tutorial on how to read TAFs or read the parsed version below.

Parsed version of TAF for Sion Airport (LSGS)

  • From 03 December at 15:00 UTC, to day 03 of the month at 24:00 UTC
  • Visibility: Greater than 10 km
  • Wind: Variable at 2
  • Expected to arise soon, from 03 December at 15:00 UTC, to day 03 of the month at 18:00 UTC
  • Clouds: Broken sky at 2743 meters
  • Visibility: Greater than 10 km